createdAt,value
2023-02-25T00:02:15.751Z,8.45
2023-02-25T00:04:44.362Z,8.35
2023-02-25T00:07:12.896Z,8.54
2023-02-25T00:09:42.788Z,8.52
2023-02-25T00:12:11.455Z,8.27
2023-02-25T00:14:40.672Z,8.25
2023-02-25T00:17:09.038Z,8.45
2023-02-25T00:19:37.532Z,7.32
2023-02-25T00:22:05.924Z,8.59
2023-02-25T00:24:34.234Z,8.35
2023-02-25T00:27:04.399Z,8.14
2023-02-25T00:29:32.973Z,7.75
2023-02-25T00:32:01.445Z,8.11
2023-02-25T00:34:29.915Z,8.22
2023-02-25T00:36:58.326Z,8.11
2023-02-25T00:39:42.137Z,8.17
2023-02-25T00:42:13.429Z,7.61
2023-02-25T00:44:45.786Z,7.86
2023-02-25T00:47:15.230Z,8.17
2023-02-25T00:49:43.750Z,8.06
2023-02-25T00:52:12.899Z,8.25
2023-02-25T00:54:41.244Z,8.12
2023-02-25T00:57:11.226Z,8.20
2023-02-25T00:59:39.686Z,8.19
2023-02-25T01:02:08.296Z,8.35
2023-02-25T01:04:36.804Z,8.16
2023-02-25T01:07:05.296Z,8.13
2023-02-25T01:09:34.334Z,8.00
2023-02-25T01:12:03.073Z,8.09
2023-02-25T01:14:33.516Z,8.12
2023-02-25T01:17:03.331Z,8.12
2023-02-25T01:19:31.922Z,8.21
2023-02-25T01:22:01.096Z,8.25
2023-02-25T01:24:32.052Z,8.23
2023-02-25T01:27:03.465Z,8.18
2023-02-25T01:29:37.047Z,8.29
2023-02-25T01:32:06.925Z,8.03
2023-02-25T01:34:36.047Z,8.17
2023-02-25T01:37:05.302Z,8.18
2023-02-25T01:39:34.520Z,8.13
2023-02-25T01:42:06.613Z,7.95
2023-02-25T01:45:26.677Z,7.89
2023-02-25T01:48:01.382Z,8.07
2023-02-25T01:50:40.024Z,7.96
2023-02-25T01:53:09.862Z,8.14
2023-02-25T01:55:41.633Z,8.24
2023-02-25T01:58:11.219Z,8.02
2023-02-25T02:00:42.959Z,8.26
2023-02-25T02:03:16.029Z,8.40
2023-02-25T02:06:06.617Z,8.41
2023-02-25T02:08:36.839Z,8.37
2023-02-25T02:11:06.350Z,8.34
2023-02-25T02:13:38.425Z,8.13
2023-02-25T02:16:24.121Z,8.11
2023-02-25T02:18:58.698Z,8.09
2023-02-25T02:21:54.707Z,7.87
2023-02-25T02:25:07.364Z,7.84
2023-02-25T02:28:02.389Z,7.91
2023-02-25T02:31:09.934Z,7.97
2023-02-25T02:33:48.917Z,8.02
2023-02-25T02:36:26.075Z,7.68
2023-02-25T02:39:03.282Z,7.83
2023-02-25T02:41:36.799Z,7.52
2023-02-25T02:44:11.726Z,7.70
2023-02-25T02:46:48.060Z,7.77
2023-02-25T02:49:23.143Z,7.65
2023-02-25T02:51:56.844Z,7.58
2023-02-25T02:54:29.094Z,7.34
2023-02-25T02:57:00.045Z,7.85
2023-02-25T02:59:34.609Z,7.30
2023-02-25T03:02:10.989Z,7.62
2023-02-25T03:04:43.135Z,7.58
2023-02-25T03:07:13.503Z,7.90
2023-02-25T03:09:48.233Z,8.06
2023-02-25T03:12:16.869Z,8.18
2023-02-25T03:14:45.286Z,8.20
2023-02-25T03:17:19.490Z,8.32
2023-02-25T03:19:53.466Z,8.34
2023-02-25T03:22:27.886Z,8.48
2023-02-25T03:25:02.329Z,8.42
2023-02-25T03:27:36.236Z,8.19
2023-02-25T03:30:13.115Z,8.34
2023-02-25T03:32:48.959Z,8.37
2023-02-25T03:35:21.527Z,8.37
2023-02-25T03:37:53.185Z,8.38
2023-02-25T03:40:23.580Z,8.36
2023-02-25T03:42:58.447Z,8.25
2023-02-25T03:45:26.975Z,8.35
2023-02-25T03:47:58.946Z,8.22
2023-02-25T03:50:33.331Z,8.28
2023-02-25T03:53:05.041Z,8.36
2023-02-25T03:56:13.102Z,8.06
2023-02-25T03:58:45.555Z,7.95
2023-02-25T04:01:18.033Z,7.87
2023-02-25T04:03:48.710Z,7.91
2023-02-25T04:06:17.385Z,7.56
2023-02-25T04:08:45.672Z,7.65
2023-02-25T04:11:13.985Z,7.65
2023-02-25T04:13:44.652Z,7.49
2023-02-25T04:16:14.066Z,7.59
2023-02-25T04:18:42.570Z,7.64
2023-02-25T04:21:29.860Z,7.71
2023-02-25T04:23:58.844Z,7.66
2023-02-25T04:26:27.466Z,7.63
2023-02-25T04:28:56.127Z,7.78
2023-02-25T04:31:24.639Z,7.90
2023-02-25T04:33:53.105Z,7.92
2023-02-25T04:36:29.899Z,8.01
2023-02-25T04:38:59.765Z,7.82
2023-02-25T04:41:31.991Z,8.07
2023-02-25T04:44:03.923Z,8.04
2023-02-25T04:46:33.514Z,8.06
2023-02-25T04:49:02.582Z,8.26
2023-02-25T04:51:32.504Z,7.67
2023-02-25T04:54:00.858Z,7.66
2023-02-25T04:56:29.206Z,8.18
2023-02-25T04:58:58.392Z,8.26
2023-02-25T05:01:26.823Z,8.30
2023-02-25T05:03:57.007Z,8.40
2023-02-25T05:06:26.109Z,8.26
2023-02-25T05:08:57.357Z,8.31
2023-02-25T05:11:28.466Z,8.18
2023-02-25T05:13:57.306Z,8.14
2023-02-25T05:16:27.234Z,8.20
2023-02-25T05:18:55.948Z,8.01
2023-02-25T05:21:27.267Z,8.23
2023-02-25T05:23:57.012Z,8.06
2023-02-25T05:26:26.539Z,8.23
2023-02-25T05:28:57.635Z,7.69
2023-02-25T05:31:27.054Z,8.31
2023-02-25T05:33:55.679Z,8.05
2023-02-25T05:36:27.802Z,8.31
2023-02-25T05:39:02.655Z,8.28
2023-02-25T05:41:31.383Z,8.34
2023-02-25T05:43:59.791Z,8.31
2023-02-25T05:46:28.458Z,7.81
2023-02-25T05:48:56.950Z,8.04
2023-02-25T05:51:25.455Z,8.04
2023-02-25T05:53:54.097Z,7.83
2023-02-25T05:56:28.841Z,7.93
2023-02-25T05:58:58.601Z,7.77
2023-02-25T06:01:29.520Z,7.67
2023-02-25T06:03:59.168Z,7.69
2023-02-25T06:06:29.760Z,7.69
2023-02-25T06:08:58.340Z,7.75
2023-02-25T06:11:32.060Z,7.61
2023-02-25T06:14:01.672Z,7.61
2023-02-25T06:16:32.177Z,7.45
2023-02-25T06:19:02.516Z,6.66
2023-02-25T06:21:31.392Z,6.57
2023-02-25T06:23:59.812Z,7.38
2023-02-25T06:26:30.157Z,6.41
2023-02-25T06:28:58.676Z,6.97
2023-02-25T06:31:27.524Z,7.11
2023-02-25T06:33:56.213Z,7.18
2023-02-25T06:36:24.960Z,7.14
2023-02-25T06:38:53.567Z,7.39
2023-02-25T06:41:23.862Z,7.50
2023-02-25T06:43:54.423Z,7.63
2023-02-25T06:46:25.057Z,7.71
2023-02-25T06:48:54.207Z,7.47
2023-02-25T06:51:22.765Z,7.50
2023-02-25T06:53:52.972Z,7.57
2023-02-25T06:56:22.922Z,7.50
2023-02-25T06:58:56.727Z,7.55
2023-02-25T07:01:25.269Z,7.66
2023-02-25T07:03:54.098Z,7.63
2023-02-25T07:06:22.555Z,7.50
2023-02-25T07:08:51.137Z,7.42
2023-02-25T07:11:30.352Z,7.51
2023-02-25T07:14:00.074Z,7.64
2023-02-25T07:16:29.970Z,7.60
2023-02-25T07:19:02.219Z,7.02
2023-02-25T07:21:31.684Z,7.49
2023-02-25T07:24:00.438Z,7.37
2023-02-25T07:26:29.269Z,7.49
2023-02-25T07:29:00.468Z,7.48
2023-02-25T07:31:30.085Z,7.40
2023-02-25T07:34:03.489Z,7.54
2023-02-25T07:36:33.190Z,7.49
2023-02-25T07:39:03.558Z,7.43
2023-02-25T07:41:32.698Z,7.43
2023-02-25T07:44:07.344Z,7.54
2023-02-25T07:46:36.109Z,7.84
2023-02-25T07:49:04.521Z,8.21
2023-02-25T07:51:32.933Z,8.16
2023-02-25T07:54:01.732Z,8.70
2023-02-25T07:56:31.741Z,9.03
2023-02-25T07:59:00.250Z,9.52
2023-02-25T08:01:34.657Z,9.95
2023-02-25T08:04:06.275Z,10.11
2023-02-25T08:06:38.565Z,10.68
2023-02-25T08:09:07.415Z,10.88
2023-02-25T08:11:36.429Z,10.95
2023-02-25T08:14:05.954Z,10.88
2023-02-25T08:16:35.831Z,10.70
2023-02-25T08:19:04.759Z,10.86
2023-02-25T08:21:33.524Z,11.00
2023-02-25T08:24:02.026Z,9.76
2023-02-25T08:26:30.381Z,9.98
2023-02-25T08:28:58.891Z,10.18
2023-02-25T08:31:28.080Z,10.14
2023-02-25T08:33:59.540Z,10.37
2023-02-25T08:36:30.551Z,10.48
2023-02-25T08:39:01.149Z,10.82
2023-02-25T08:41:30.386Z,11.34
2023-02-25T08:44:01.885Z,11.05
2023-02-25T08:46:33.957Z,11.69
2023-02-25T08:49:03.846Z,11.83
2023-02-25T08:51:38.540Z,12.00
2023-02-25T08:54:09.220Z,12.29
2023-02-25T08:56:37.901Z,12.21
2023-02-25T08:59:06.675Z,12.17
2023-02-25T09:01:45.647Z,12.03
2023-02-25T09:04:18.316Z,12.24
2023-02-25T09:06:48.056Z,11.82
2023-02-25T09:09:17.612Z,11.67
2023-02-25T09:11:47.324Z,11.56
2023-02-25T09:14:16.567Z,11.93
2023-02-25T09:16:45.136Z,12.32
2023-02-25T09:19:18.256Z,12.11
2023-02-25T09:21:48.733Z,12.14
2023-02-25T09:24:17.578Z,12.04
2023-02-25T09:26:46.366Z,12.34
2023-02-25T09:29:14.916Z,12.72
2023-02-25T09:31:43.441Z,12.87
2023-02-25T09:34:14.523Z,12.83
2023-02-25T09:36:44.321Z,12.33
2023-02-25T09:39:13.174Z,12.28
2023-02-25T09:41:50.838Z,11.78
2023-02-25T09:44:23.384Z,11.87
2023-02-25T09:46:57.358Z,11.53
2023-02-25T09:49:32.417Z,11.37
2023-02-25T09:52:09.442Z,11.34
2023-02-25T09:54:44.889Z,11.21
2023-02-25T09:57:19.139Z,11.11
2023-02-25T09:59:48.602Z,11.17
2023-02-25T10:02:37.286Z,11.48
2023-02-25T10:05:23.477Z,11.99
2023-02-25T10:08:03.524Z,12.49
2023-02-25T10:10:40.679Z,12.85
2023-02-25T10:13:25.088Z,13.08
2023-02-25T10:16:06.307Z,12.40
2023-02-25T10:19:01.784Z,12.90
2023-02-25T10:21:55.782Z,13.08
2023-02-25T10:24:32.282Z,13.36
2023-02-25T10:27:11.444Z,13.37
2023-02-25T10:29:46.485Z,13.58
2023-02-25T10:32:21.549Z,13.08
2023-02-25T10:34:52.368Z,13.67
2023-02-25T10:37:27.013Z,13.65
2023-02-25T10:40:00.618Z,13.43
2023-02-25T10:42:30.003Z,13.54
2023-02-25T10:45:08.246Z,13.31
2023-02-25T10:47:39.327Z,12.69
2023-02-25T10:50:19.342Z,12.46
2023-02-25T10:53:01.209Z,12.13
2023-02-25T10:55:51.935Z,12.19
2023-02-25T10:58:38.549Z,12.00
2023-02-25T11:01:15.364Z,11.97
2023-02-25T11:03:55.235Z,12.16
2023-02-25T11:06:30.224Z,12.47
2023-02-25T11:09:00.597Z,12.70
2023-02-25T11:11:33.036Z,12.78
2023-02-25T11:14:06.226Z,12.84
2023-02-25T11:16:38.111Z,13.19
2023-02-25T11:19:16.203Z,13.41
2023-02-25T11:21:45.615Z,13.50
2023-02-25T11:24:17.824Z,13.36
2023-02-25T11:26:51.195Z,13.31
2023-02-25T11:29:24.998Z,13.32
2023-02-25T11:31:57.811Z,13.28
2023-02-25T11:34:30.613Z,13.09
2023-02-25T11:37:26.868Z,12.85
2023-02-25T11:39:57.121Z,12.57
2023-02-25T11:42:30.159Z,12.50
2023-02-25T11:45:01.647Z,12.52
2023-02-25T11:47:33.290Z,12.33
2023-02-25T11:50:13.701Z,11.74
2023-02-25T11:52:45.980Z,12.13
2023-02-25T11:55:37.895Z,11.75
2023-02-25T11:58:23.017Z,11.68
2023-02-25T12:01:00.459Z,11.49
2023-02-25T12:04:01.438Z,10.89
2023-02-25T12:07:15.797Z,10.99
2023-02-25T12:10:13.195Z,10.52
2023-02-25T12:13:35.640Z,10.10
2023-02-25T12:16:44.669Z,9.94
2023-02-25T12:20:14.507Z,9.88
2023-02-25T12:23:29.008Z,9.68
2023-02-25T12:26:07.487Z,9.78
2023-02-25T12:29:05.441Z,9.84
2023-02-25T12:32:13.073Z,9.77
2023-02-25T12:35:25.065Z,10.04
2023-02-25T12:38:38.037Z,10.33
2023-02-25T12:41:35.027Z,10.26
2023-02-25T12:44:45.411Z,10.28
2023-02-25T12:47:27.186Z,10.36
2023-02-25T12:50:35.822Z,10.28
2023-02-25T12:53:26.298Z,10.51
2023-02-25T12:56:13.870Z,10.66
2023-02-25T12:58:56.606Z,10.98
2023-02-25T13:01:44.018Z,11.18
2023-02-25T13:04:35.815Z,11.53
2023-02-25T13:07:31.307Z,11.89
2023-02-25T13:10:19.284Z,11.98
2023-02-25T13:13:03.487Z,11.87
2023-02-25T13:15:39.460Z,12.04
2023-02-25T13:18:26.674Z,12.02
2023-02-25T13:21:35.273Z,12.01
2023-02-25T13:24:35.153Z,11.98
2023-02-25T13:27:35.910Z,11.88
2023-02-25T13:30:23.566Z,11.84
2023-02-25T13:33:12.200Z,11.88
2023-02-25T13:35:55.604Z,11.56
2023-02-25T13:38:39.886Z,11.53
2023-02-25T13:41:31.582Z,11.58
2023-02-25T13:44:40.197Z,11.42
2023-02-25T13:47:40.478Z,11.59
2023-02-25T13:50:37.634Z,11.50
2023-02-25T13:53:42.009Z,11.48
2023-02-25T13:56:38.612Z,11.38
2023-02-25T13:59:25.754Z,11.17
2023-02-25T14:02:25.609Z,11.33
2023-02-25T14:05:31.606Z,11.24
2023-02-25T14:08:28.004Z,11.36
2023-02-25T14:11:26.938Z,11.04
2023-02-25T14:14:19.951Z,11.00
2023-02-25T14:17:17.987Z,11.18
2023-02-25T14:20:06.597Z,11.27
2023-02-25T14:22:41.465Z,11.20
2023-02-25T14:25:43.172Z,11.33
2023-02-25T14:28:24.102Z,11.18
2023-02-25T14:31:07.707Z,11.16
2023-02-25T14:34:04.105Z,11.09
2023-02-25T14:36:57.323Z,11.12
2023-02-25T14:39:42.685Z,11.10
2023-02-25T14:42:32.654Z,11.23
2023-02-25T14:45:07.113Z,11.28
2023-02-25T14:47:44.221Z,10.92
2023-02-25T14:50:19.798Z,10.80
2023-02-25T14:53:45.785Z,10.33
2023-02-25T14:56:52.430Z,10.59
2023-02-25T15:00:02.443Z,10.78
2023-02-25T15:02:54.603Z,10.89
2023-02-25T15:06:08.042Z,10.88
2023-02-25T15:09:19.399Z,10.90
2023-02-25T15:12:13.486Z,10.90
2023-02-25T15:15:16.907Z,10.75
2023-02-25T15:18:36.904Z,10.66
2023-02-25T15:21:40.647Z,10.77
2023-02-25T15:24:40.558Z,10.95
2023-02-25T15:27:51.396Z,11.01
2023-02-25T15:30:23.749Z,10.88
2023-02-25T15:33:16.831Z,10.66
2023-02-25T15:35:58.778Z,10.60
2023-02-25T15:38:46.881Z,10.57
2023-02-25T15:42:03.917Z,10.53
2023-02-25T15:44:41.353Z,10.54
2023-02-25T15:47:30.517Z,10.51
2023-02-25T15:50:00.587Z,10.44
2023-02-25T15:52:58.826Z,10.50
2023-02-25T15:55:40.821Z,10.34
2023-02-25T15:58:51.546Z,10.24
2023-02-25T16:01:44.057Z,10.22
2023-02-25T16:04:50.341Z,10.08
2023-02-25T16:07:22.533Z,10.15
2023-02-25T16:09:56.641Z,10.36
2023-02-25T16:12:26.159Z,10.33
2023-02-25T16:14:56.699Z,10.35
2023-02-25T16:17:31.673Z,10.12
2023-02-25T16:20:13.483Z,10.14
2023-02-25T16:22:47.325Z,10.01
2023-02-25T16:25:20.312Z,9.97
2023-02-25T16:27:58.243Z,9.79
2023-02-25T16:30:36.004Z,9.74
2023-02-25T16:33:13.761Z,9.61
2023-02-25T16:35:55.441Z,9.70
2023-02-25T16:38:38.423Z,9.64
2023-02-25T16:41:07.273Z,9.56
2023-02-25T16:43:39.488Z,9.55
2023-02-25T16:46:12.736Z,9.55
2023-02-25T16:48:50.298Z,9.47
2023-02-25T16:51:26.542Z,9.00
2023-02-25T16:53:58.335Z,9.45
2023-02-25T16:56:30.178Z,9.56
2023-02-25T16:59:18.475Z,9.53
2023-02-25T17:01:56.943Z,9.55
2023-02-25T17:04:31.229Z,9.51
2023-02-25T17:07:14.714Z,9.55
2023-02-25T17:09:49.509Z,9.48
2023-02-25T17:12:22.136Z,9.54
2023-02-25T17:14:54.171Z,9.54
2023-02-25T17:17:29.108Z,9.57
2023-02-25T17:19:58.887Z,9.34
2023-02-25T17:22:29.013Z,9.46
2023-02-25T17:24:59.409Z,9.26
2023-02-25T17:27:29.544Z,9.34
2023-02-25T17:29:58.192Z,9.41
2023-02-25T17:32:29.666Z,9.42
2023-02-25T17:35:02.636Z,9.20
2023-02-25T17:37:34.038Z,9.32
2023-02-25T17:40:04.355Z,9.31
2023-02-25T17:42:35.988Z,9.31
2023-02-25T17:45:08.502Z,9.21
2023-02-25T17:47:38.205Z,9.31
2023-02-25T17:50:25.951Z,9.27
2023-02-25T17:52:56.192Z,9.29
2023-02-25T17:55:28.360Z,9.17
2023-02-25T17:58:00.129Z,9.09
2023-02-25T18:00:35.283Z,9.13
2023-02-25T18:03:18.398Z,9.16
2023-02-25T18:05:53.479Z,9.14
2023-02-25T18:08:24.875Z,9.23
2023-02-25T18:10:59.592Z,9.07
2023-02-25T18:13:36.683Z,9.11
2023-02-25T18:16:42.154Z,9.09
2023-02-25T18:19:39.139Z,9.17
2023-02-25T18:22:23.070Z,9.01
2023-02-25T18:24:57.991Z,8.51
2023-02-25T18:27:30.554Z,9.13
2023-02-25T18:30:09.488Z,9.14
2023-02-25T18:32:39.360Z,9.18
2023-02-25T18:35:09.783Z,9.19
2023-02-25T18:37:39.283Z,9.17
2023-02-25T18:40:16.966Z,9.17
2023-02-25T18:42:45.397Z,8.97
2023-02-25T18:45:16.677Z,8.86
2023-02-25T18:47:45.320Z,9.02
2023-02-25T18:50:14.824Z,9.00
2023-02-25T18:52:43.978Z,9.06
2023-02-25T18:55:22.724Z,8.98
2023-02-25T18:57:51.517Z,8.99
2023-02-25T19:00:24.689Z,8.98
2023-02-25T19:02:56.028Z,8.47
2023-02-25T19:05:26.225Z,8.89
2023-02-25T19:07:54.837Z,8.88
2023-02-25T19:10:28.281Z,8.74
2023-02-25T19:13:03.615Z,8.70
2023-02-25T19:15:32.167Z,8.97
2023-02-25T19:18:00.660Z,8.98
2023-02-25T19:20:29.147Z,8.71
2023-02-25T19:22:57.552Z,8.99
2023-02-25T19:25:30.323Z,8.90
2023-02-25T19:27:59.059Z,9.00
2023-02-25T19:30:32.080Z,8.97
2023-02-25T19:33:04.551Z,8.90
2023-02-25T19:35:36.043Z,8.92
2023-02-25T19:38:05.398Z,8.86
2023-02-25T19:40:35.568Z,8.85
2023-02-25T19:43:05.400Z,8.71
2023-02-25T19:45:34.494Z,8.81
2023-02-25T19:48:03.648Z,8.69
2023-02-25T19:50:35.079Z,8.72
2023-02-25T19:53:06.136Z,8.73
2023-02-25T19:55:36.993Z,8.74
2023-02-25T19:58:05.592Z,8.62
2023-02-25T20:00:34.220Z,8.66
2023-02-25T20:03:03.022Z,8.63
2023-02-25T20:05:31.458Z,8.63
2023-02-25T20:08:00.633Z,8.66
2023-02-25T20:10:29.296Z,8.68
2023-02-25T20:12:59.117Z,8.53
2023-02-25T20:15:27.614Z,8.54
2023-02-25T20:17:57.795Z,8.55
2023-02-25T20:20:26.388Z,8.39
2023-02-25T20:22:54.771Z,8.54
2023-02-25T20:25:23.393Z,8.35
2023-02-25T20:27:51.767Z,8.35
2023-02-25T20:30:23.016Z,8.46
2023-02-25T20:32:51.964Z,8.49
2023-02-25T20:35:23.196Z,8.40
2023-02-25T20:38:15.699Z,8.34
2023-02-25T20:40:44.449Z,8.31
2023-02-25T20:43:13.486Z,8.26
2023-02-25T20:45:44.081Z,8.25
2023-02-25T20:48:27.414Z,8.18
2023-02-25T20:50:56.634Z,8.25
2023-02-25T20:53:26.154Z,8.19
2023-02-25T20:55:57.242Z,7.66
2023-02-25T20:58:25.634Z,8.13
2023-02-25T21:00:55.384Z,8.13
2023-02-25T21:03:24.021Z,8.12
2023-02-25T21:05:52.318Z,8.10
2023-02-25T21:08:20.687Z,8.20
2023-02-25T21:10:49.667Z,8.15
2023-02-25T21:13:18.146Z,8.15
2023-02-25T21:15:46.506Z,8.12
2023-02-25T21:18:16.298Z,8.05
2023-02-25T21:20:44.840Z,8.03
2023-02-25T21:23:13.255Z,8.08
2023-02-25T21:25:41.612Z,8.11
2023-02-25T21:28:10.053Z,7.95
2023-02-25T21:30:39.775Z,8.12
2023-02-25T21:33:08.484Z,8.13
2023-02-25T21:35:38.370Z,8.02
2023-02-25T21:38:06.777Z,7.86
2023-02-25T21:40:35.552Z,8.06
2023-02-25T21:43:03.854Z,8.05
2023-02-25T21:45:32.683Z,7.94
2023-02-25T21:48:01.278Z,8.04
2023-02-25T21:50:29.639Z,8.06
2023-02-25T21:52:59.465Z,7.32
2023-02-25T21:55:28.283Z,7.96
2023-02-25T21:57:56.662Z,7.91
2023-02-25T22:00:25.132Z,7.92
2023-02-25T22:02:53.628Z,7.90
2023-02-25T22:05:22.036Z,7.89
2023-02-25T22:07:50.684Z,7.86
2023-02-25T22:10:21.398Z,7.77
2023-02-25T22:12:50.929Z,7.83
2023-02-25T22:15:19.442Z,7.75
2023-02-25T22:17:47.866Z,7.85
2023-02-25T22:20:16.653Z,7.82
2023-02-25T22:22:44.975Z,7.84
2023-02-25T22:25:13.352Z,7.87
2023-02-25T22:27:43.072Z,7.78
2023-02-25T22:30:13.367Z,7.84
2023-02-25T22:32:41.778Z,7.96
2023-02-25T22:35:10.864Z,7.91
2023-02-25T22:37:39.346Z,7.96
2023-02-25T22:40:09.442Z,7.94
2023-02-25T22:42:37.991Z,7.90
2023-02-25T22:45:09.381Z,7.91
2023-02-25T22:47:37.779Z,7.96
2023-02-25T22:50:07.609Z,7.97
2023-02-25T22:52:36.665Z,7.94
2023-02-25T22:55:05.756Z,7.97
2023-02-25T22:57:34.103Z,7.97
2023-02-25T23:00:03.439Z,8.02
2023-02-25T23:02:33.367Z,7.99
2023-02-25T23:05:01.810Z,8.01
2023-02-25T23:07:30.119Z,8.10
2023-02-25T23:09:58.558Z,8.04
2023-02-25T23:12:26.910Z,8.13
2023-02-25T23:14:55.272Z,8.19
2023-02-25T23:17:23.649Z,8.13
2023-02-25T23:19:59.177Z,8.21
2023-02-25T23:22:30.406Z,8.20
2023-02-25T23:24:58.992Z,8.13
2023-02-25T23:27:27.338Z,8.18
2023-02-25T23:29:55.687Z,8.21
2023-02-25T23:32:25.305Z,8.20
2023-02-25T23:34:55.069Z,8.23
2023-02-25T23:37:23.477Z,8.23
2023-02-25T23:39:51.899Z,8.20
2023-02-25T23:42:20.318Z,8.19
2023-02-25T23:44:48.756Z,8.13
2023-02-25T23:47:17.511Z,8.06
2023-02-25T23:49:45.931Z,8.15
2023-02-25T23:52:15.678Z,8.17
2023-02-25T23:54:43.991Z,8.12
2023-02-25T23:57:12.394Z,8.10
2023-02-25T23:59:40.737Z,8.07
